createdAt,value
2019-05-06T00:00:28.015Z,72.36
2019-05-06T00:02:58.703Z,72.29
2019-05-06T00:05:29.755Z,72.07
2019-05-06T00:07:59.427Z,71.78
2019-05-06T00:10:30.728Z,71.53
2019-05-06T00:13:04.578Z,71.69
2019-05-06T00:15:34.899Z,72.11
2019-05-06T00:18:04.817Z,72.25
2019-05-06T00:20:34.771Z,72.40
2019-05-06T00:23:10.157Z,72.41
2019-05-06T00:26:07.645Z,72.37
2019-05-06T00:28:53.882Z,73.68
2019-05-06T00:31:23.986Z,74.32
2019-05-06T00:33:54.072Z,74.91
2019-05-06T00:36:23.907Z,75.27
2019-05-06T00:38:56.041Z,75.39
2019-05-06T00:41:28.135Z,75.26
2019-05-06T00:43:57.319Z,75.30
2019-05-06T00:46:28.052Z,75.17
2019-05-06T00:48:57.275Z,75.14
2019-05-06T00:51:26.879Z,74.87
2019-05-06T00:54:03.856Z,74.76
2019-05-06T00:56:34.072Z,74.42
2019-05-06T00:59:03.911Z,74.18
2019-05-06T01:01:35.133Z,73.87
2019-05-06T01:04:05.220Z,73.41
2019-05-06T01:06:36.154Z,72.84
2019-05-06T01:09:08.686Z,72.37
2019-05-06T01:11:38.305Z,72.34
2019-05-06T01:14:16.088Z,72.96
2019-05-06T01:16:45.742Z,72.54
2019-05-06T01:19:15.259Z,73.10
2019-05-06T01:21:44.848Z,72.78
2019-05-06T01:24:15.793Z,72.78
2019-05-06T01:26:45.455Z,73.09
2019-05-06T01:29:14.736Z,73.32
2019-05-06T01:31:46.075Z,73.20
2019-05-06T01:34:15.047Z,72.83
2019-05-06T01:36:44.715Z,72.63
2019-05-06T01:39:24.531Z,72.42
2019-05-06T01:42:15.214Z,72.32
2019-05-06T01:44:44.453Z,72.33
2019-05-06T01:47:14.532Z,72.39
2019-05-06T01:49:44.812Z,72.33
2019-05-06T01:52:14.725Z,72.46
2019-05-06T01:54:44.028Z,72.52
2019-05-06T01:57:13.805Z,72.49
2019-05-06T01:59:44.318Z,72.45
2019-05-06T02:02:14.433Z,72.52
2019-05-06T02:04:44.517Z,72.51
2019-05-06T02:07:15.442Z,72.47
2019-05-06T02:09:44.914Z,72.49
2019-05-06T02:12:14.455Z,72.64
2019-05-06T02:14:44.393Z,72.62
2019-05-06T02:17:14.504Z,72.96
2019-05-06T02:19:44.319Z,73.01
2019-05-06T02:22:37.367Z,72.98
2019-05-06T02:25:10.876Z,73.00
2019-05-06T02:27:40.106Z,73.31
2019-05-06T02:30:20.215Z,73.56
2019-05-06T02:33:11.430Z,73.79
2019-05-06T02:36:06.620Z,73.79
2019-05-06T02:38:46.586Z,73.77
2019-05-06T02:41:08.777Z,73.79
2019-05-06T02:43:38.378Z,73.75
2019-05-06T02:46:07.792Z,73.68
2019-05-06T02:49:03.904Z,73.68
2019-05-06T02:51:33.501Z,73.73
2019-05-06T02:54:03.602Z,73.67
2019-05-06T02:56:33.514Z,73.66
2019-05-06T02:59:03.968Z,73.70
2019-05-06T03:01:34.137Z,73.65
2019-05-06T03:04:04.645Z,73.62
2019-05-06T03:06:34.092Z,73.70
2019-05-06T03:09:04.273Z,73.53
2019-05-06T03:11:33.608Z,73.68
2019-05-06T03:14:03.541Z,73.79
2019-05-06T03:16:33.520Z,73.80
2019-05-06T03:19:04.203Z,73.87
2019-05-06T03:21:54.720Z,73.77
2019-05-06T03:24:43.795Z,73.79
2019-05-06T03:27:14.452Z,73.82
2019-05-06T03:29:44.664Z,73.87
2019-05-06T03:32:21.504Z,73.90
2019-05-06T03:35:09.170Z,73.89
2019-05-06T03:37:18.602Z,73.83
2019-05-06T03:39:48.192Z,73.70
2019-05-06T03:42:18.482Z,73.65
2019-05-06T03:44:53.785Z,73.68
2019-05-06T03:47:38.421Z,73.83
2019-05-06T03:50:08.319Z,73.77
2019-05-06T03:52:37.629Z,73.84
2019-05-06T03:55:08.437Z,73.75
2019-05-06T03:57:39.303Z,73.71
2019-05-06T04:00:12.986Z,73.78
2019-05-06T04:02:43.703Z,73.79
2019-05-06T04:05:13.659Z,73.66
2019-05-06T04:07:45.908Z,73.71
2019-05-06T04:10:16.652Z,73.68
2019-05-06T04:12:47.504Z,73.67
2019-05-06T04:15:16.879Z,73.62
2019-05-06T04:17:53.862Z,73.59
2019-05-06T04:20:45.305Z,73.60
2019-05-06T04:23:32.839Z,73.53
2019-05-06T04:26:07.563Z,73.49
2019-05-06T04:28:37.039Z,73.33
2019-05-06T04:31:07.027Z,73.12
2019-05-06T04:33:39.903Z,72.88
2019-05-06T04:36:09.482Z,72.59
2019-05-06T04:38:39.288Z,72.30
2019-05-06T04:41:08.555Z,72.03
2019-05-06T04:43:37.863Z,71.95
2019-05-06T04:46:07.216Z,71.80
2019-05-06T04:48:37.006Z,71.51
2019-05-06T04:51:06.460Z,71.33
2019-05-06T04:53:35.673Z,71.14
2019-05-06T04:56:05.372Z,71.11
2019-05-06T04:58:35.352Z,70.88
2019-05-06T05:01:05.165Z,70.68
2019-05-06T05:03:34.440Z,70.57
2019-05-06T05:06:06.016Z,70.31
2019-05-06T05:08:38.385Z,70.12
2019-05-06T05:11:36.551Z,70.08
2019-05-06T05:14:27.355Z,69.93
2019-05-06T05:17:02.173Z,69.91
2019-05-06T05:19:32.766Z,69.86
2019-05-06T05:22:09.108Z,69.67
2019-05-06T05:24:42.387Z,69.53
2019-05-06T05:27:12.550Z,69.50
2019-05-06T05:29:42.523Z,68.96
2019-05-06T05:32:15.464Z,68.97
2019-05-06T05:34:45.912Z,68.93
2019-05-06T05:37:15.221Z,68.58
2019-05-06T05:39:44.452Z,68.62
2019-05-06T05:42:22.653Z,68.73
2019-05-06T05:44:54.147Z,68.50
2019-05-06T05:47:23.725Z,68.30
2019-05-06T05:50:13.337Z,68.28
2019-05-06T05:52:43.194Z,68.26
2019-05-06T05:55:12.628Z,68.01
2019-05-06T05:57:43.237Z,67.70
2019-05-06T06:00:15.076Z,67.37
2019-05-06T06:02:44.479Z,67.58
2019-05-06T06:05:13.828Z,67.39
2019-05-06T06:07:43.108Z,67.09
2019-05-06T06:10:22.638Z,66.83
2019-05-06T06:12:52.947Z,65.96
2019-05-06T06:15:42.346Z,65.24
2019-05-06T06:18:22.412Z,64.47
2019-05-06T06:21:17.353Z,63.68
2019-05-06T06:23:35.922Z,63.85
2019-05-06T06:26:07.161Z,64.12
2019-05-06T06:28:36.823Z,64.27
2019-05-06T06:31:28.145Z,64.16
2019-05-06T06:34:03.963Z,64.19
2019-05-06T06:36:42.916Z,64.47
2019-05-06T06:39:16.449Z,63.80
2019-05-06T06:41:47.064Z,62.49
2019-05-06T06:44:22.159Z,61.75
2019-05-06T06:46:52.406Z,61.67
2019-05-06T06:49:22.393Z,60.69
2019-05-06T06:51:53.313Z,59.69
2019-05-06T06:54:23.074Z,58.77
2019-05-06T06:57:18.114Z,59.67
2019-05-06T06:59:59.303Z,58.92
2019-05-06T07:02:48.428Z,58.21
2019-05-06T07:05:42.821Z,57.72
2019-05-06T07:08:12.748Z,57.55
2019-05-06T07:10:43.838Z,57.75
2019-05-06T07:13:14.659Z,57.24
2019-05-06T07:15:44.967Z,56.41
2019-05-06T07:18:15.743Z,55.20
2019-05-06T07:21:06.050Z,54.90
2019-05-06T07:23:36.246Z,53.56
2019-05-06T07:26:06.332Z,53.87
2019-05-06T07:28:35.934Z,53.70
2019-05-06T07:31:18.679Z,52.87
2019-05-06T07:33:36.989Z,53.51
2019-05-06T07:36:06.694Z,54.79
2019-05-06T07:38:36.305Z,53.62
2019-05-06T07:41:19.527Z,53.97
2019-05-06T07:44:17.393Z,53.98
2019-05-06T07:46:53.696Z,53.86
2019-05-06T07:49:23.621Z,54.30
2019-05-06T07:51:53.160Z,53.28
2019-05-06T07:54:22.450Z,52.80
2019-05-06T07:56:52.690Z,52.65
2019-05-06T07:59:22.705Z,52.27
2019-05-06T08:01:54.057Z,52.02
2019-05-06T08:04:24.164Z,52.40
2019-05-06T08:06:53.456Z,51.40
2019-05-06T08:09:23.047Z,50.14
2019-05-06T08:11:53.072Z,49.46
2019-05-06T08:14:24.294Z,49.30
2019-05-06T08:17:02.345Z,49.42
2019-05-06T08:19:33.568Z,49.74
2019-05-06T08:22:08.467Z,48.91
2019-05-06T08:24:37.779Z,49.21
2019-05-06T08:27:07.041Z,48.54
2019-05-06T08:29:36.357Z,48.08
2019-05-06T08:32:05.775Z,47.47
2019-05-06T08:34:35.003Z,46.38
2019-05-06T08:37:14.736Z,45.91
2019-05-06T08:39:46.188Z,46.05
2019-05-06T08:42:17.405Z,46.62
2019-05-06T08:44:46.746Z,46.28
2019-05-06T08:47:16.084Z,45.73
2019-05-06T08:50:21.702Z,44.70
2019-05-06T08:53:13.848Z,46.12
2019-05-06T08:55:44.541Z,44.67
2019-05-06T08:58:14.815Z,43.75
2019-05-06T09:00:57.580Z,44.80
2019-05-06T09:03:28.479Z,44.53
2019-05-06T09:05:58.156Z,44.64
2019-05-06T09:08:27.545Z,43.26
2019-05-06T09:10:56.795Z,41.87
2019-05-06T09:13:26.145Z,40.85
2019-05-06T09:15:55.965Z,40.70
2019-05-06T09:18:25.895Z,39.34
2019-05-06T09:20:55.217Z,40.26
2019-05-06T09:23:27.496Z,39.41
2019-05-06T09:25:58.739Z,39.17
2019-05-06T09:28:38.022Z,39.41
2019-05-06T09:31:23.838Z,40.31
2019-05-06T09:33:58.022Z,40.89
2019-05-06T09:36:39.942Z,40.75
2019-05-06T09:39:02.285Z,39.79
2019-05-06T09:41:32.461Z,40.16
2019-05-06T09:44:03.061Z,39.77
2019-05-06T09:46:33.263Z,39.46
2019-05-06T09:49:16.538Z,39.45
2019-05-06T09:51:45.803Z,39.47
2019-05-06T09:54:23.668Z,39.68
2019-05-06T09:57:22.130Z,40.21
2019-05-06T09:59:52.727Z,39.80
2019-05-06T10:02:22.992Z,39.52
2019-05-06T10:04:52.444Z,39.06
2019-05-06T10:07:22.538Z,37.70
2019-05-06T10:09:55.567Z,38.33
2019-05-06T10:12:26.368Z,38.14
2019-05-06T10:14:56.001Z,38.46
2019-05-06T10:17:26.547Z,40.70
2019-05-06T10:19:56.152Z,39.93
2019-05-06T10:22:25.402Z,40.99
2019-05-06T10:24:54.633Z,39.91
2019-05-06T10:27:26.109Z,39.76
2019-05-06T10:30:03.206Z,39.18
2019-05-06T10:32:52.833Z,39.01
2019-05-06T10:35:23.116Z,39.09
2019-05-06T10:38:13.508Z,37.66
2019-05-06T10:40:59.698Z,38.38
2019-05-06T10:43:25.159Z,38.51
2019-05-06T10:45:54.829Z,39.04
2019-05-06T10:48:24.061Z,38.79
2019-05-06T10:50:58.932Z,39.11
2019-05-06T10:53:28.549Z,39.56
2019-05-06T10:56:02.412Z,39.40
2019-05-06T10:58:32.708Z,39.25
2019-05-06T11:01:17.442Z,39.46
2019-05-06T11:03:46.737Z,39.41
2019-05-06T11:06:16.353Z,37.26
2019-05-06T11:08:46.979Z,37.33
2019-05-06T11:11:31.254Z,38.07
2019-05-06T11:13:47.412Z,38.14
2019-05-06T11:16:17.109Z,37.48
2019-05-06T11:18:46.888Z,37.32
2019-05-06T11:21:16.169Z,37.98
2019-05-06T11:23:46.651Z,38.95
2019-05-06T11:26:15.896Z,38.69
2019-05-06T11:28:49.294Z,38.73
2019-05-06T11:31:35.253Z,37.83
2019-05-06T11:34:14.419Z,38.29
2019-05-06T11:36:52.711Z,37.56
2019-05-06T11:39:23.260Z,38.73
2019-05-06T11:42:08.062Z,37.95
2019-05-06T11:44:24.245Z,39.51
2019-05-06T11:46:53.608Z,39.69
2019-05-06T11:49:23.468Z,39.98
2019-05-06T11:51:52.833Z,41.32
2019-05-06T11:54:24.353Z,41.42
2019-05-06T11:56:58.225Z,40.91
2019-05-06T11:59:27.436Z,40.53
2019-05-06T12:02:02.639Z,40.19
2019-05-06T12:04:33.489Z,39.78
2019-05-06T12:07:11.272Z,39.63
2019-05-06T12:09:35.892Z,39.47
2019-05-06T12:12:05.153Z,39.86
2019-05-06T12:14:34.470Z,41.09
2019-05-06T12:17:03.766Z,43.15
2019-05-06T12:19:34.105Z,43.79
2019-05-06T12:22:03.728Z,43.48
2019-05-06T12:24:33.017Z,42.57
2019-05-06T12:27:03.724Z,39.95
2019-05-06T12:29:33.000Z,40.91
2019-05-06T12:32:17.271Z,38.79
2019-05-06T12:34:47.858Z,39.32
2019-05-06T12:37:20.715Z,41.33
2019-05-06T12:39:54.267Z,43.51
2019-05-06T12:42:53.522Z,43.38
2019-05-06T12:45:32.941Z,42.65
2019-05-06T12:48:05.408Z,42.44
2019-05-06T12:50:35.359Z,41.18
2019-05-06T12:53:04.976Z,39.93
2019-05-06T12:55:35.264Z,39.84
2019-05-06T12:58:08.302Z,40.76
2019-05-06T13:00:37.866Z,40.83
2019-05-06T13:03:08.945Z,41.14
2019-05-06T13:05:38.538Z,41.05
2019-05-06T13:08:08.220Z,41.53
2019-05-06T13:10:37.886Z,42.03
2019-05-06T13:13:07.375Z,41.47
2019-05-06T13:15:36.817Z,40.95
2019-05-06T13:18:07.484Z,40.84
2019-05-06T13:20:37.699Z,39.95
2019-05-06T13:23:26.154Z,40.25
2019-05-06T13:25:55.436Z,40.93
2019-05-06T13:28:30.317Z,42.12
2019-05-06T13:31:15.338Z,42.24
2019-05-06T13:33:45.098Z,42.44
2019-05-06T13:36:14.876Z,42.46
2019-05-06T13:38:44.110Z,42.03
2019-05-06T13:41:16.195Z,42.34
2019-05-06T13:43:54.147Z,42.12
2019-05-06T13:46:26.870Z,42.38
2019-05-06T13:49:13.888Z,42.82
2019-05-06T13:51:48.100Z,43.60
2019-05-06T13:54:19.123Z,44.23
2019-05-06T13:56:49.179Z,44.54
2019-05-06T13:59:18.841Z,44.54
2019-05-06T14:01:57.770Z,44.84
2019-05-06T14:04:27.402Z,45.47
2019-05-06T14:06:57.001Z,45.17
2019-05-06T14:09:33.388Z,44.82
2019-05-06T14:12:02.617Z,44.49
2019-05-06T14:14:32.388Z,44.19
2019-05-06T14:17:01.739Z,43.69
2019-05-06T14:19:33.227Z,44.34
2019-05-06T14:22:03.963Z,44.24
2019-05-06T14:24:37.101Z,48.06
2019-05-06T14:27:11.384Z,50.10
2019-05-06T14:30:08.718Z,51.00
2019-05-06T14:32:37.973Z,51.89
2019-05-06T14:35:07.494Z,54.24
2019-05-06T14:37:37.844Z,55.01
2019-05-06T14:40:09.216Z,54.18
2019-05-06T14:42:38.834Z,54.07
2019-05-06T14:45:09.031Z,53.79
2019-05-06T14:47:42.323Z,54.03
2019-05-06T14:50:14.481Z,54.16
2019-05-06T14:52:43.404Z,53.76
2019-05-06T14:55:18.248Z,53.82
2019-05-06T15:00:23.564Z,52.56
2019-05-06T15:02:53.518Z,52.80
2019-05-06T15:05:22.995Z,51.03
2019-05-06T15:07:52.868Z,52.13
2019-05-06T15:10:26.511Z,51.60
2019-05-06T15:12:55.740Z,50.93
2019-05-06T15:15:25.099Z,49.06
2019-05-06T15:17:54.394Z,48.19
2019-05-06T15:20:24.003Z,48.41
2019-05-06T15:22:53.666Z,48.61
2019-05-06T15:25:22.929Z,49.28
2019-05-06T15:27:53.471Z,48.55
2019-05-06T15:30:30.555Z,49.12
2019-05-06T15:33:02.391Z,49.68
2019-05-06T15:35:56.129Z,50.10
2019-05-06T15:38:27.746Z,49.55
2019-05-06T15:40:57.263Z,49.88
2019-05-06T15:43:27.439Z,50.46
2019-05-06T15:45:57.332Z,50.83
2019-05-06T15:48:27.302Z,51.18
2019-05-06T15:50:56.956Z,51.22
2019-05-06T15:53:26.240Z,51.46
2019-05-06T15:55:55.510Z,51.26
2019-05-06T15:58:24.795Z,51.41
2019-05-06T16:00:54.141Z,52.04
2019-05-06T16:03:23.441Z,52.26
2019-05-06T16:05:55.172Z,52.67
2019-05-06T16:08:24.930Z,53.49
2019-05-06T16:10:58.651Z,53.76
2019-05-06T16:13:27.208Z,54.13
2019-05-06T16:15:56.782Z,54.43
2019-05-06T16:18:26.673Z,55.05
2019-05-06T16:20:57.580Z,55.42
2019-05-06T16:23:36.578Z,55.41
2019-05-06T16:26:06.396Z,55.55
2019-05-06T16:28:35.955Z,55.14
2019-05-06T16:31:05.512Z,55.51
2019-05-06T16:33:35.181Z,55.50
2019-05-06T16:36:04.405Z,55.80
2019-05-06T16:38:34.221Z,56.14
2019-05-06T16:41:12.378Z,55.89
2019-05-06T16:43:34.756Z,56.33
2019-05-06T16:46:03.995Z,56.64
2019-05-06T16:48:33.258Z,56.45
2019-05-06T16:51:04.882Z,56.65
2019-05-06T16:53:35.298Z,56.85
2019-05-06T16:56:10.123Z,56.62
2019-05-06T16:58:46.969Z,56.69
2019-05-06T17:01:15.269Z,56.87
2019-05-06T17:03:53.087Z,56.81
2019-05-06T17:06:28.208Z,56.81
2019-05-06T17:08:58.531Z,57.22
2019-05-06T17:11:33.482Z,57.46
2019-05-06T17:14:00.071Z,57.37
2019-05-06T17:16:29.287Z,56.45
2019-05-06T17:18:58.577Z,56.79
2019-05-06T17:21:27.845Z,56.76
2019-05-06T17:23:57.513Z,57.50
2019-05-06T17:26:26.730Z,58.29
2019-05-06T17:29:14.008Z,58.74
2019-05-06T17:32:13.763Z,59.22
2019-05-06T17:34:46.920Z,59.48
2019-05-06T17:37:36.976Z,59.82
2019-05-06T17:40:13.243Z,58.94
2019-05-06T17:42:42.072Z,58.77
2019-05-06T17:45:32.134Z,58.39
2019-05-06T17:48:09.504Z,57.39
2019-05-06T17:50:39.391Z,57.33
2019-05-06T17:53:08.749Z,58.59
2019-05-06T17:55:38.117Z,57.66
2019-05-06T17:58:07.723Z,57.21
2019-05-06T18:00:36.974Z,56.89
2019-05-06T18:03:06.394Z,57.27
2019-05-06T18:05:35.980Z,57.50
2019-05-06T18:08:05.207Z,57.93
2019-05-06T18:10:34.466Z,58.94
2019-05-06T18:13:07.260Z,59.17
2019-05-06T18:15:36.412Z,59.09
2019-05-06T18:18:06.004Z,59.31
2019-05-06T18:20:36.754Z,58.92
2019-05-06T18:23:06.016Z,59.06
2019-05-06T18:25:35.307Z,59.83
2019-05-06T18:28:04.660Z,60.08
2019-05-06T18:30:37.205Z,60.04
2019-05-06T18:33:07.419Z,60.30
2019-05-06T18:35:36.960Z,60.05
2019-05-06T18:38:07.286Z,60.48
2019-05-06T18:40:36.912Z,60.57
2019-05-06T18:43:06.190Z,60.68
2019-05-06T18:45:35.739Z,61.15
2019-05-06T18:48:05.716Z,60.93
2019-05-06T18:50:34.938Z,60.68
2019-05-06T18:53:04.591Z,61.05
2019-05-06T18:55:33.847Z,61.23
2019-05-06T18:58:03.529Z,61.90
2019-05-06T19:00:32.904Z,61.86
2019-05-06T19:03:02.780Z,61.88
2019-05-06T19:05:36.045Z,61.79
2019-05-06T19:08:12.434Z,62.00
2019-05-06T19:10:42.447Z,62.28
2019-05-06T19:13:33.507Z,62.29
2019-05-06T19:16:04.607Z,62.59
2019-05-06T19:18:34.239Z,62.41
2019-05-06T19:21:03.543Z,62.63
2019-05-06T19:23:33.297Z,62.48
2019-05-06T19:26:02.998Z,62.29
2019-05-06T19:28:32.980Z,63.01
2019-05-06T19:31:03.223Z,63.30
2019-05-06T19:33:34.807Z,62.58
2019-05-06T19:36:04.842Z,61.99
2019-05-06T19:38:34.173Z,61.88
2019-05-06T19:41:05.863Z,61.98
2019-05-06T19:43:34.736Z,62.72
2019-05-06T19:46:03.965Z,63.00
2019-05-06T19:48:34.003Z,62.71
2019-05-06T19:51:04.149Z,62.67
2019-05-06T19:53:33.932Z,63.25
2019-05-06T19:56:03.345Z,64.24
2019-05-06T19:58:34.062Z,64.51
2019-05-06T20:01:04.890Z,64.51
2019-05-06T20:03:34.632Z,64.08
2019-05-06T20:06:13.096Z,63.33
2019-05-06T20:08:48.329Z,63.49
2019-05-06T20:11:34.415Z,63.33
2019-05-06T20:14:03.714Z,63.39
2019-05-06T20:16:33.282Z,63.61
2019-05-06T20:19:04.753Z,63.74
2019-05-06T20:21:34.392Z,63.89
2019-05-06T20:24:03.654Z,63.91
2019-05-06T20:26:32.935Z,64.21
2019-05-06T20:29:02.363Z,64.80
2019-05-06T20:31:32.232Z,65.05
2019-05-06T20:34:02.263Z,65.24
2019-05-06T20:36:33.210Z,65.28
2019-05-06T20:39:02.702Z,64.92
2019-05-06T20:41:33.787Z,64.42
2019-05-06T20:44:03.413Z,65.11
2019-05-06T20:46:33.106Z,65.52
2019-05-06T20:49:02.572Z,65.48
2019-05-06T20:51:32.817Z,65.68
2019-05-06T20:54:02.551Z,66.06
2019-05-06T20:56:32.735Z,66.13
2019-05-06T20:59:02.533Z,65.80
2019-05-06T21:01:32.687Z,65.81
2019-05-06T21:04:02.338Z,66.19
2019-05-06T21:06:32.290Z,66.22
2019-05-06T21:09:02.129Z,66.43
2019-05-06T21:11:32.557Z,66.82
2019-05-06T21:14:02.349Z,67.34
2019-05-06T21:16:32.079Z,67.06
2019-05-06T21:19:03.192Z,67.16
2019-05-06T21:21:32.627Z,67.14
2019-05-06T21:24:02.336Z,67.11
2019-05-06T21:26:32.996Z,67.65
2019-05-06T21:29:03.341Z,67.91
2019-05-06T21:31:32.758Z,68.36
2019-05-06T21:34:02.103Z,68.42
2019-05-06T21:36:31.340Z,68.33
2019-05-06T21:39:01.985Z,68.37
2019-05-06T21:41:32.729Z,68.71
2019-05-06T21:44:02.515Z,68.78
2019-05-06T21:46:31.983Z,68.75
2019-05-06T21:49:01.621Z,68.61
2019-05-06T21:51:32.787Z,68.62
2019-05-06T21:54:02.834Z,68.88
2019-05-06T21:56:33.354Z,68.95
2019-05-06T21:59:03.039Z,68.87
2019-05-06T22:01:33.015Z,68.95
2019-05-06T22:04:03.308Z,68.71
2019-05-06T22:06:34.721Z,68.65
2019-05-06T22:09:05.576Z,68.41
2019-05-06T22:11:36.298Z,68.66
2019-05-06T22:14:06.684Z,69.22
2019-05-06T22:16:35.899Z,69.25
2019-05-06T22:19:05.298Z,69.23
2019-05-06T22:21:35.553Z,69.20
2019-05-06T22:24:06.547Z,69.14
2019-05-06T22:26:35.816Z,69.07
2019-05-06T22:29:05.473Z,69.12
2019-05-06T22:31:35.105Z,68.71
2019-05-06T22:34:04.348Z,68.69
2019-05-06T22:36:33.613Z,68.65
2019-05-06T22:39:02.918Z,68.76
2019-05-06T22:41:32.703Z,68.76
2019-05-06T22:44:13.033Z,68.82
2019-05-06T22:46:34.107Z,68.80
2019-05-06T22:49:03.609Z,69.12
2019-05-06T22:51:32.823Z,69.18
2019-05-06T22:54:03.325Z,69.03
2019-05-06T22:56:32.777Z,68.96
2019-05-06T22:59:04.329Z,68.94
2019-05-06T23:01:57.451Z,68.71
2019-05-06T23:04:28.451Z,68.55
2019-05-06T23:06:57.689Z,68.48
2019-05-06T23:09:27.273Z,68.56
2019-05-06T23:11:57.010Z,68.48
2019-05-06T23:14:31.597Z,68.61
2019-05-06T23:16:57.479Z,68.50
2019-05-06T23:19:27.028Z,68.58
2019-05-06T23:21:59.743Z,68.80
2019-05-06T23:24:29.338Z,68.90
2019-05-06T23:26:58.989Z,68.99
2019-05-06T23:29:28.524Z,69.19
2019-05-06T23:31:58.251Z,69.24
2019-05-06T23:34:27.485Z,69.23
2019-05-06T23:37:28.118Z,69.70
2019-05-06T23:40:38.724Z,69.94
2019-05-06T23:43:44.339Z,69.97
2019-05-06T23:46:49.836Z,69.84
2019-05-06T23:49:55.144Z,70.09
2019-05-06T23:53:02.808Z,70.10
2019-05-06T23:56:08.401Z,70.31
2019-05-06T23:58:38.029Z,70.36
